createdAt,value
2022-09-28T00:01:18.145Z,69.61
2022-09-28T00:03:45.690Z,69.34
2022-09-28T00:06:14.425Z,69.71
2022-09-28T00:08:40.902Z,69.58
2022-09-28T00:11:08.442Z,70.02
2022-09-28T00:13:35.089Z,75.41
2022-09-28T00:16:02.727Z,78.48
2022-09-28T00:18:29.402Z,79.23
2022-09-28T00:21:10.328Z,80.25
2022-09-28T00:23:37.162Z,79.67
2022-09-28T00:26:06.655Z,79.70
2022-09-28T00:28:33.165Z,78.81
2022-09-28T00:31:00.369Z,80.48
2022-09-28T00:33:26.951Z,80.60
2022-09-28T00:35:59.389Z,80.40
2022-09-28T00:38:27.089Z,81.29
2022-09-28T00:40:53.633Z,81.53
2022-09-28T00:43:20.795Z,81.98
2022-09-28T00:45:57.735Z,82.12
2022-09-28T00:48:27.714Z,81.69
2022-09-28T00:50:54.232Z,83.31
2022-09-28T00:53:27.060Z,82.99
2022-09-28T00:56:02.182Z,83.58
2022-09-28T00:58:32.347Z,83.39
2022-09-28T01:00:59.080Z,83.86
2022-09-28T01:03:26.834Z,83.31
2022-09-28T01:05:53.907Z,83.31
2022-09-28T01:08:21.841Z,84.33
2022-09-28T01:10:49.014Z,84.48
2022-09-28T01:13:15.802Z,84.12
2022-09-28T01:16:07.173Z,84.21
2022-09-28T01:19:07.368Z,84.00
2022-09-28T01:21:54.080Z,86.03
2022-09-28T01:24:27.708Z,86.42
2022-09-28T01:26:56.399Z,87.09
2022-09-28T01:29:36.381Z,86.63
2022-09-28T01:32:22.997Z,87.01
2022-09-28T01:35:04.232Z,87.75
2022-09-28T01:37:53.412Z,88.58
2022-09-28T01:40:25.139Z,88.58
2022-09-28T01:42:59.914Z,88.44
2022-09-28T01:45:29.692Z,89.79
2022-09-28T01:48:02.175Z,89.98
2022-09-28T01:50:29.875Z,89.78
2022-09-28T01:53:15.779Z,89.99
2022-09-28T01:55:45.112Z,89.16
2022-09-28T01:58:28.773Z,88.25
2022-09-28T02:01:09.517Z,88.08
2022-09-28T02:03:41.609Z,88.96
2022-09-28T02:06:22.076Z,89.06
2022-09-28T02:09:05.498Z,88.82
2022-09-28T02:11:32.963Z,88.15
2022-09-28T02:14:03.937Z,89.78
2022-09-28T02:16:35.981Z,91.14
2022-09-28T02:19:03.350Z,91.54
2022-09-28T02:21:42.995Z,92.67
2022-09-28T02:24:21.191Z,93.40
2022-09-28T02:26:52.005Z,93.51
2022-09-28T02:29:18.799Z,95.32
2022-09-28T02:31:45.560Z,95.56
2022-09-28T02:34:12.042Z,95.21
2022-09-28T02:36:42.467Z,95.06
2022-09-28T02:39:15.930Z,94.70
2022-09-28T02:41:42.318Z,94.20
2022-09-28T02:44:31.222Z,93.67
2022-09-28T02:47:18.016Z,93.85
2022-09-28T02:49:50.104Z,94.32
2022-09-28T02:52:50.807Z,95.20
2022-09-28T02:55:44.947Z,96.08
2022-09-28T02:58:14.403Z,96.15
2022-09-28T03:00:45.242Z,97.32
2022-09-28T03:03:42.466Z,98.07
2022-09-28T03:06:22.649Z,97.02
2022-09-28T03:09:04.771Z,95.91
2022-09-28T03:11:46.021Z,95.64
2022-09-28T03:14:17.245Z,95.45
2022-09-28T03:16:44.621Z,95.63
2022-09-28T03:19:15.789Z,97.08
2022-09-28T03:21:42.888Z,96.84
2022-09-28T03:24:09.399Z,96.76
2022-09-28T03:26:35.901Z,95.65
2022-09-28T03:29:02.358Z,95.69
2022-09-28T03:31:28.862Z,96.61
2022-09-28T03:33:55.331Z,97.27
2022-09-28T03:36:21.817Z,97.47
2022-09-28T03:38:52.701Z,96.52
2022-09-28T03:41:19.188Z,97.58
2022-09-28T03:43:45.646Z,98.21
2022-09-28T03:46:12.204Z,97.66
2022-09-28T03:48:39.761Z,97.15
2022-09-28T03:51:07.325Z,97.61
2022-09-28T03:53:33.806Z,97.11
2022-09-28T03:56:05.649Z,96.19
2022-09-28T03:58:32.342Z,96.10
2022-09-28T04:01:07.791Z,96.73
2022-09-28T04:03:35.048Z,95.48
2022-09-28T04:06:01.566Z,95.90
2022-09-28T04:08:28.282Z,95.77
2022-09-28T04:10:58.711Z,95.80
2022-09-28T04:13:26.130Z,95.36
2022-09-28T04:15:54.404Z,96.38
2022-09-28T04:18:21.356Z,95.92
2022-09-28T04:20:51.187Z,96.60
2022-09-28T04:23:17.818Z,96.82
2022-09-28T04:25:44.304Z,97.02
2022-09-28T04:28:11.283Z,96.66
2022-09-28T04:30:37.919Z,97.51
2022-09-28T04:33:04.565Z,97.66
2022-09-28T04:35:31.794Z,97.45
2022-09-28T04:37:58.398Z,97.30
2022-09-28T04:40:24.964Z,96.53
2022-09-28T04:42:55.433Z,96.14
2022-09-28T04:45:22.730Z,96.37
2022-09-28T04:47:49.893Z,96.23
2022-09-28T04:50:16.634Z,95.56
2022-09-28T04:52:43.146Z,95.37
2022-09-28T04:55:12.109Z,94.30
2022-09-28T04:57:38.604Z,94.70
2022-09-28T05:00:05.752Z,93.79
2022-09-28T05:02:32.301Z,95.54
2022-09-28T05:04:58.852Z,95.61
2022-09-28T05:07:25.843Z,95.11
2022-09-28T05:09:52.687Z,94.81
2022-09-28T05:12:19.121Z,96.07
2022-09-28T05:14:45.583Z,96.94
2022-09-28T05:17:12.504Z,96.30
2022-09-28T05:19:39.088Z,97.00
2022-09-28T05:22:05.565Z,97.56
2022-09-28T05:24:33.250Z,98.81
2022-09-28T05:26:59.785Z,98.99
2022-09-28T05:29:30.085Z,100.00
2022-09-28T05:31:58.581Z,100.00
2022-09-28T05:34:25.132Z,99.13
2022-09-28T05:36:52.219Z,98.80
2022-09-28T05:39:18.992Z,98.83
2022-09-28T05:41:45.435Z,99.35
2022-09-28T05:44:11.895Z,98.21
2022-09-28T05:46:41.444Z,98.46
2022-09-28T05:49:08.007Z,98.05
2022-09-28T05:51:34.569Z,99.24
2022-09-28T05:54:05.653Z,99.43
2022-09-28T05:56:33.085Z,98.78
2022-09-28T05:58:59.823Z,97.97
2022-09-28T06:01:27.141Z,97.74
2022-09-28T06:03:53.683Z,98.27
2022-09-28T06:06:20.149Z,99.12
2022-09-28T06:08:46.594Z,99.58
2022-09-28T06:11:13.038Z,97.30
2022-09-28T06:13:39.635Z,97.02
2022-09-28T06:16:07.342Z,96.58
2022-09-28T06:18:34.051Z,97.98
2022-09-28T06:21:00.528Z,98.23
2022-09-28T06:23:26.984Z,99.18
2022-09-28T06:25:53.415Z,97.60
2022-09-28T06:28:19.870Z,96.62
2022-09-28T06:30:46.436Z,95.50
2022-09-28T06:33:14.520Z,95.19
2022-09-28T06:35:41.400Z,95.48
2022-09-28T06:38:07.935Z,97.01
2022-09-28T06:40:34.462Z,97.58
2022-09-28T06:43:06.062Z,99.82
2022-09-28T06:45:32.499Z,99.36
2022-09-28T06:48:00.548Z,99.90
2022-09-28T06:50:28.960Z,100.00
2022-09-28T06:52:55.491Z,100.00
2022-09-28T06:55:22.315Z,100.00
2022-09-28T06:57:57.488Z,100.00
2022-09-28T07:00:24.017Z,100.00
2022-09-28T07:02:53.952Z,100.00
2022-09-28T07:05:20.604Z,97.34
2022-09-28T07:07:47.058Z,96.17
2022-09-28T07:10:14.359Z,93.87
2022-09-28T07:12:41.058Z,93.48
2022-09-28T07:15:08.263Z,92.24
2022-09-28T07:17:43.472Z,92.75
2022-09-28T07:20:19.628Z,91.68
2022-09-28T07:22:46.605Z,90.26
2022-09-28T07:25:13.108Z,90.06
2022-09-28T07:27:39.861Z,90.17
2022-09-28T07:30:07.326Z,89.85
2022-09-28T07:32:33.772Z,89.06
2022-09-28T07:35:00.430Z,88.87
2022-09-28T07:37:26.976Z,88.19
2022-09-28T07:39:53.727Z,88.21
2022-09-28T07:42:20.982Z,89.30
2022-09-28T07:44:47.648Z,88.85
2022-09-28T07:47:14.877Z,88.59
2022-09-28T07:49:42.607Z,88.44
2022-09-28T07:52:09.092Z,88.11
2022-09-28T07:54:35.826Z,87.97
2022-09-28T07:57:05.937Z,88.78
2022-09-28T07:59:32.327Z,87.97
2022-09-28T08:01:58.904Z,89.15
2022-09-28T08:04:25.983Z,88.81
2022-09-28T08:06:52.622Z,85.71
2022-09-28T08:09:19.164Z,86.08
2022-09-28T08:11:45.775Z,85.58
2022-09-28T08:14:12.274Z,85.12
2022-09-28T08:19:10.186Z,84.12
2022-09-28T08:21:36.641Z,83.95
2022-09-28T08:24:03.171Z,84.47
2022-09-28T08:26:31.480Z,84.96
2022-09-28T08:28:57.956Z,83.96
2022-09-28T08:31:24.534Z,84.53
2022-09-28T08:33:50.979Z,87.74
2022-09-28T08:36:17.421Z,87.98
2022-09-28T08:38:44.397Z,87.37
2022-09-28T08:41:23.001Z,88.12
2022-09-28T08:44:16.831Z,88.68
2022-09-28T08:46:52.403Z,89.37
2022-09-28T08:49:34.235Z,89.73
2022-09-28T08:52:03.827Z,90.49
2022-09-28T08:54:40.906Z,88.85
2022-09-28T08:57:12.961Z,87.43
2022-09-28T08:59:52.529Z,87.66
2022-09-28T09:02:25.824Z,85.12
2022-09-28T09:04:52.604Z,86.14
2022-09-28T09:07:28.155Z,85.29
2022-09-28T09:10:18.276Z,85.61
2022-09-28T09:13:03.616Z,88.03
2022-09-28T09:15:41.545Z,88.34
2022-09-28T09:18:15.560Z,88.28
2022-09-28T09:20:56.051Z,89.08
2022-09-28T09:23:40.729Z,85.77
2022-09-28T09:26:22.024Z,86.00
2022-09-28T09:29:30.100Z,84.31
2022-09-28T09:32:13.231Z,84.86
2022-09-28T09:35:01.381Z,85.46
2022-09-28T09:37:46.223Z,84.08
2022-09-28T09:40:18.209Z,82.69
2022-09-28T09:42:49.678Z,82.41
2022-09-28T09:45:19.010Z,81.96
2022-09-28T09:47:49.406Z,81.78
2022-09-28T09:50:26.152Z,79.35
2022-09-28T09:53:05.609Z,79.00
2022-09-28T09:55:50.845Z,78.66
2022-09-28T09:58:22.389Z,78.83
2022-09-28T10:00:54.043Z,79.20
2022-09-28T10:03:34.821Z,80.11
2022-09-28T10:06:08.387Z,80.24
2022-09-28T10:08:39.697Z,82.10
2022-09-28T10:11:13.194Z,84.48
2022-09-28T10:13:39.759Z,87.36
2022-09-28T10:16:07.292Z,87.04
2022-09-28T10:18:34.130Z,85.90
2022-09-28T10:21:00.694Z,86.73
2022-09-28T10:23:30.183Z,87.78
2022-09-28T10:26:03.669Z,88.80
2022-09-28T10:28:36.021Z,87.73
2022-09-28T10:31:33.335Z,87.09
2022-09-28T10:33:59.811Z,84.18
2022-09-28T10:36:26.346Z,83.68
2022-09-28T10:38:52.835Z,81.29
2022-09-28T10:41:19.485Z,79.42
2022-09-28T10:43:58.170Z,78.42
2022-09-28T10:46:24.771Z,78.76
2022-09-28T10:48:51.370Z,76.79
2022-09-28T10:51:17.894Z,77.33
2022-09-28T10:54:01.392Z,76.09
2022-09-28T10:56:30.329Z,75.90
2022-09-28T10:58:57.198Z,74.85
2022-09-28T11:01:26.661Z,73.24
2022-09-28T11:04:01.615Z,72.91
2022-09-28T11:06:33.225Z,72.72
2022-09-28T11:09:28.401Z,72.44
2022-09-28T11:12:01.035Z,70.96
2022-09-28T11:14:38.257Z,71.42
2022-09-28T11:17:37.515Z,70.62
2022-09-28T11:20:27.829Z,70.60
2022-09-28T11:23:00.318Z,72.41
2022-09-28T11:25:28.908Z,73.32
2022-09-28T11:28:01.964Z,74.02
2022-09-28T11:30:28.527Z,76.16
2022-09-28T11:33:03.123Z,76.62
2022-09-28T11:35:47.066Z,77.73
2022-09-28T11:38:32.836Z,78.96
2022-09-28T11:41:26.783Z,82.75
2022-09-28T11:44:28.159Z,83.53
2022-09-28T11:47:09.889Z,84.04
2022-09-28T11:49:44.723Z,84.80
2022-09-28T11:52:18.805Z,83.10
2022-09-28T11:54:52.281Z,82.37
2022-09-28T11:57:22.190Z,82.07
2022-09-28T11:59:58.967Z,81.49
2022-09-28T12:02:33.970Z,79.36
2022-09-28T12:05:30.551Z,78.79
2022-09-28T12:08:02.010Z,77.79
2022-09-28T12:10:45.584Z,77.73
2022-09-28T12:13:15.380Z,80.37
2022-09-28T12:16:11.635Z,82.77
2022-09-28T12:18:41.112Z,84.36
2022-09-28T12:21:42.973Z,85.00
2022-09-28T12:24:27.302Z,84.26
2022-09-28T12:26:58.546Z,84.68
2022-09-28T12:29:35.212Z,84.38
2022-09-28T12:32:10.221Z,83.46
2022-09-28T12:34:36.776Z,82.96
2022-09-28T12:37:27.975Z,82.32
2022-09-28T12:40:23.490Z,82.58
2022-09-28T12:43:05.313Z,82.67
2022-09-28T12:46:10.506Z,82.40
2022-09-28T12:49:47.196Z,81.90
2022-09-28T12:51:50.047Z,82.56
2022-09-28T12:54:21.964Z,82.37
2022-09-28T12:57:14.215Z,84.42
2022-09-28T13:00:04.708Z,84.99
2022-09-28T13:02:49.335Z,84.70
2022-09-28T13:05:38.732Z,85.62
2022-09-28T13:08:12.186Z,84.65
2022-09-28T13:10:52.096Z,82.06
2022-09-28T13:13:47.440Z,81.38
2022-09-28T13:16:19.722Z,80.51
2022-09-28T13:18:49.031Z,80.80
2022-09-28T13:21:18.835Z,80.17
2022-09-28T13:23:47.039Z,79.03
2022-09-28T13:26:28.416Z,79.11
2022-09-28T13:29:00.077Z,78.75
2022-09-28T13:31:29.285Z,79.34
2022-09-28T13:34:00.091Z,80.12
2022-09-28T13:36:29.623Z,80.68
2022-09-28T13:38:57.618Z,81.11
2022-09-28T13:41:35.610Z,80.14
2022-09-28T13:44:12.042Z,80.45
2022-09-28T13:46:56.839Z,79.53
2022-09-28T13:49:42.494Z,77.90
2022-09-28T13:52:26.868Z,77.76
2022-09-28T13:55:02.465Z,78.38
2022-09-28T13:57:35.660Z,78.64
2022-09-28T14:00:24.827Z,79.15
2022-09-28T14:03:04.740Z,80.26
2022-09-28T14:05:34.369Z,80.79
2022-09-28T14:08:09.904Z,81.72
2022-09-28T14:10:53.284Z,80.97
2022-09-28T14:13:41.650Z,80.88
2022-09-28T14:16:28.889Z,80.77
2022-09-28T14:19:10.454Z,81.10
2022-09-28T14:22:01.830Z,80.74
2022-09-28T14:24:59.300Z,81.45
2022-09-28T14:27:44.200Z,81.53
2022-09-28T14:30:13.669Z,80.95
2022-09-28T14:32:41.938Z,81.46
2022-09-28T14:35:19.422Z,81.49
2022-09-28T14:37:48.379Z,82.15
2022-09-28T14:40:21.142Z,81.29
2022-09-28T14:43:22.497Z,82.48
2022-09-28T14:45:49.099Z,83.16
2022-09-28T14:48:20.806Z,83.15
2022-09-28T14:50:47.508Z,82.89
2022-09-28T14:53:18.570Z,82.46
2022-09-28T14:55:50.732Z,83.22
2022-09-28T14:58:20.711Z,83.31
2022-09-28T15:00:49.148Z,83.86
2022-09-28T15:03:16.042Z,83.53
2022-09-28T15:05:44.475Z,84.15
2022-09-28T15:08:11.613Z,86.39
2022-09-28T15:10:46.369Z,87.03
2022-09-28T15:13:26.065Z,88.25
2022-09-28T15:16:13.648Z,90.81
2022-09-28T15:18:48.249Z,92.08
2022-09-28T15:21:14.804Z,92.30
2022-09-28T15:23:43.136Z,92.52
2022-09-28T15:26:24.590Z,94.42
2022-09-28T15:28:54.849Z,94.79
2022-09-28T15:31:23.704Z,96.12
2022-09-28T15:33:52.680Z,95.99
2022-09-28T15:36:21.902Z,96.30
2022-09-28T15:38:55.708Z,97.21
2022-09-28T15:41:22.424Z,97.92
2022-09-28T15:44:12.642Z,98.22
2022-09-28T15:46:40.344Z,97.90
2022-09-28T15:49:23.091Z,95.93
2022-09-28T15:51:51.883Z,94.49
2022-09-28T15:54:23.925Z,94.74
2022-09-28T15:56:56.661Z,92.54
2022-09-28T15:59:29.639Z,92.37
2022-09-28T16:02:17.449Z,93.91
2022-09-28T16:04:49.688Z,94.11
2022-09-28T16:07:16.108Z,93.88
2022-09-28T16:10:01.877Z,93.73
2022-09-28T16:12:49.097Z,92.36
2022-09-28T16:15:31.318Z,91.24
2022-09-28T16:18:00.250Z,90.85
2022-09-28T16:20:31.662Z,91.12
2022-09-28T16:23:08.612Z,89.29
2022-09-28T16:25:36.646Z,89.56
2022-09-28T16:28:04.276Z,91.34
2022-09-28T16:30:33.205Z,91.75
2022-09-28T16:33:02.739Z,90.96
2022-09-28T16:35:31.420Z,92.96
2022-09-28T16:38:08.755Z,93.17
2022-09-28T16:40:39.159Z,93.97
2022-09-28T16:43:07.074Z,94.73
2022-09-28T16:45:33.643Z,95.97
2022-09-28T16:48:00.164Z,96.00
2022-09-28T16:50:26.652Z,98.53
2022-09-28T16:53:00.219Z,99.74
2022-09-28T16:55:40.219Z,100.00
2022-09-28T16:58:07.588Z,100.00
2022-09-28T17:00:34.102Z,100.00
2022-09-28T17:03:00.598Z,100.00
2022-09-28T17:05:27.069Z,99.99
2022-09-28T17:08:02.181Z,100.00
2022-09-28T17:11:09.364Z,100.00
2022-09-28T17:13:30.995Z,99.53
2022-09-28T17:15:58.297Z,98.87
2022-09-28T17:18:24.836Z,98.52
2022-09-28T17:20:52.396Z,100.00
2022-09-28T17:25:46.760Z,100.00
2022-09-28T17:28:22.365Z,100.00
2022-09-28T17:30:48.878Z,100.00
2022-09-28T17:33:15.676Z,98.52
2022-09-28T17:35:43.222Z,97.10
2022-09-28T17:38:12.007Z,97.53
2022-09-28T17:40:38.531Z,96.00
2022-09-28T17:43:05.126Z,96.06
2022-09-28T17:45:32.756Z,95.13
2022-09-28T17:47:59.329Z,94.62
2022-09-28T17:50:28.219Z,94.34
2022-09-28T17:52:55.280Z,93.53
2022-09-28T17:55:24.113Z,92.85
2022-09-28T17:57:50.685Z,94.46
2022-09-28T18:00:19.067Z,93.97
2022-09-28T18:02:45.675Z,94.38
2022-09-28T18:05:20.799Z,92.42
2022-09-28T18:07:59.686Z,92.71
2022-09-28T18:10:26.207Z,92.80
2022-09-28T18:12:52.995Z,92.12
2022-09-28T18:15:19.635Z,90.46
2022-09-28T18:17:46.086Z,84.25
2022-09-28T18:20:13.042Z,87.50
2022-09-28T18:22:39.829Z,86.29
2022-09-28T18:25:06.949Z,87.36
2022-09-28T18:27:33.547Z,84.60
2022-09-28T18:30:00.345Z,84.55
2022-09-28T18:32:28.259Z,86.10
2022-09-28T18:34:54.736Z,88.65
2022-09-28T18:37:21.177Z,87.24
2022-09-28T18:39:47.609Z,86.28
2022-09-28T18:42:14.088Z,87.13
2022-09-28T18:44:40.498Z,86.84
2022-09-28T18:47:06.995Z,87.33
2022-09-28T18:49:34.028Z,88.11
2022-09-28T18:52:00.830Z,86.98
2022-09-28T18:54:27.323Z,87.18
2022-09-28T18:56:55.120Z,88.19
2022-09-28T18:59:21.993Z,87.51
2022-09-28T19:01:48.664Z,88.90
2022-09-28T19:04:15.504Z,87.51
2022-09-28T19:06:43.964Z,87.18
2022-09-28T19:09:10.638Z,86.90
2022-09-28T19:11:39.997Z,86.19
2022-09-28T19:14:24.458Z,86.68
2022-09-28T19:16:53.410Z,87.01
2022-09-28T19:19:20.496Z,86.45
2022-09-28T19:21:47.256Z,85.41
2022-09-28T19:24:17.632Z,84.91
2022-09-28T19:26:44.448Z,86.22
2022-09-28T19:29:11.885Z,85.74
2022-09-28T19:31:38.781Z,85.92
2022-09-28T19:34:06.759Z,86.30
2022-09-28T19:36:34.924Z,84.05
2022-09-28T19:39:05.472Z,85.00
2022-09-28T19:41:39.090Z,85.70
2022-09-28T19:44:18.136Z,84.37
2022-09-28T19:46:44.891Z,85.39
2022-09-28T19:49:14.042Z,88.07
2022-09-28T19:51:56.535Z,87.63
2022-09-28T19:54:28.706Z,87.08
2022-09-28T19:56:56.689Z,88.00
2022-09-28T19:59:23.842Z,88.18
2022-09-28T20:01:50.881Z,87.69
2022-09-28T20:04:18.564Z,88.13
2022-09-28T20:06:45.099Z,88.61
2022-09-28T20:09:11.556Z,88.76
2022-09-28T20:11:38.048Z,88.63
2022-09-28T20:14:09.601Z,88.71
2022-09-28T20:16:36.647Z,89.07
2022-09-28T20:19:03.987Z,89.31
2022-09-28T20:21:33.003Z,88.96
2022-09-28T20:23:59.622Z,88.75
2022-09-28T20:26:26.802Z,88.75
2022-09-28T20:28:53.769Z,89.40
2022-09-28T20:31:24.790Z,89.66
2022-09-28T20:33:51.969Z,90.34
2022-09-28T20:36:21.103Z,91.36
2022-09-28T20:38:52.294Z,91.12
2022-09-28T20:41:20.476Z,90.65
2022-09-28T20:43:47.807Z,90.35
2022-09-28T20:46:14.522Z,91.10
2022-09-28T20:48:41.006Z,91.96
2022-09-28T20:51:12.900Z,92.48
2022-09-28T20:53:40.989Z,92.58
2022-09-28T20:56:23.048Z,93.22
2022-09-28T20:58:53.847Z,91.92
2022-09-28T21:01:28.132Z,91.49
2022-09-28T21:03:55.684Z,91.49
2022-09-28T21:06:24.581Z,90.48
2022-09-28T21:08:51.548Z,90.01
2022-09-28T21:11:21.380Z,89.54
2022-09-28T21:13:52.755Z,90.51
2022-09-28T21:16:19.254Z,90.72
2022-09-28T21:18:45.703Z,90.78
2022-09-28T21:21:18.431Z,90.54
2022-09-28T21:23:46.587Z,89.36
2022-09-28T21:26:15.262Z,90.11
2022-09-28T21:28:42.313Z,89.64
2022-09-28T21:31:11.098Z,88.88
2022-09-28T21:33:37.923Z,88.99
2022-09-28T21:36:22.281Z,89.07
2022-09-28T21:38:48.717Z,89.03
2022-09-28T21:41:16.999Z,89.20
2022-09-28T21:43:43.699Z,88.46
2022-09-28T21:46:10.263Z,87.94
2022-09-28T21:48:36.866Z,88.21
2022-09-28T21:51:06.164Z,88.38
2022-09-28T21:53:34.618Z,87.93
2022-09-28T21:56:01.863Z,89.23
2022-09-28T21:58:30.911Z,89.67
2022-09-28T22:01:14.947Z,90.72
2022-09-28T22:03:42.787Z,92.03
2022-09-28T22:06:09.766Z,93.16
2022-09-28T22:08:37.523Z,93.50
2022-09-28T22:11:12.852Z,92.51
2022-09-28T22:13:46.511Z,91.29
2022-09-28T22:16:14.265Z,92.62
2022-09-28T22:18:42.126Z,91.67
2022-09-28T22:21:11.967Z,91.23
2022-09-28T22:23:39.256Z,91.08
2022-09-28T22:26:14.240Z,90.99
2022-09-28T22:28:45.682Z,90.68
2022-09-28T22:31:12.215Z,91.21
2022-09-28T22:33:38.747Z,91.17
2022-09-28T22:36:05.589Z,91.47
2022-09-28T22:38:32.273Z,92.39
2022-09-28T22:40:58.946Z,91.96
2022-09-28T22:43:26.441Z,91.34
2022-09-28T22:46:07.832Z,92.23
2022-09-28T22:48:34.462Z,91.28
2022-09-28T22:51:04.394Z,92.44
2022-09-28T22:53:32.552Z,91.68
2022-09-28T22:56:00.299Z,91.31
2022-09-28T22:58:27.323Z,92.27
2022-09-28T23:00:53.809Z,91.63
2022-09-28T23:03:20.275Z,91.87
2022-09-28T23:05:54.253Z,90.42
2022-09-28T23:08:20.894Z,91.71
2022-09-28T23:10:47.395Z,90.68
2022-09-28T23:13:14.351Z,91.34
2022-09-28T23:15:40.847Z,90.55
2022-09-28T23:18:07.500Z,90.28
2022-09-28T23:20:36.173Z,90.48
2022-09-28T23:23:02.851Z,91.06
2022-09-28T23:25:29.433Z,91.68
2022-09-28T23:27:55.855Z,91.67
2022-09-28T23:30:23.614Z,90.38
2022-09-28T23:32:52.073Z,91.65
2022-09-28T23:35:19.390Z,91.27
2022-09-28T23:37:49.626Z,90.93
2022-09-28T23:40:15.981Z,91.04
2022-09-28T23:42:42.454Z,92.59
2022-09-28T23:45:09.540Z,92.43
2022-09-28T23:47:36.386Z,92.31
2022-09-28T23:50:05.260Z,92.55
2022-09-28T23:52:31.788Z,92.17
2022-09-28T23:54:58.348Z,92.62
2022-09-28T23:57:24.798Z,93.14
2022-09-28T23:59:51.312Z,93.39
